KCPW

Wolf Creek Pass Airport

Pagosa Springs, Colorado, USA
METAR KCPW 140448Z AUTO 36007KT 10SM CLR M07/M14 A3056 RMK AO2
Observed Flight Rules
Nov-14 @ 04:48 UTC (28 minutes ago) Visual Flight Rules
Wind Visibility Clouds
360° at 7 knots 10 miles
  • Clear skies
Temperatures Readings
Current -7°C / 19°F
Dewpoint -14°C / 7°F
Humidity 58%
Altimeter 30.56" Hg
Pressure 1035 hPa
Elevation 3584
METAR KCPW 140448Z AUTO 36007KT 10SM CLR M07/M14 A3056 RMK AO2
Observed Flight Rules
Nov-14 @ 04:48 UTC
(28 minutes ago)
VFR
Wind Visibility
360° at 7 knots 10 miles
Clouds
  • Clear skies
Temperature Dewpoint
-7°C / 19°F -14°C / 7°F
Humidity Altimeter Pressure
58% 30.56" Hg 1035 hPa